PDX weather

Portland International Airport
Portland, Oregon, United States

Public forecast

Using degrees Fahrenheit for public forecast. Weather courtesy of forecast.io.

METAR (pilot weather report)

Retrieved 2019/01/22 10:53 UTC (1 hour ago):

KPDX 221053Z 12006KT 10SM OVC110 04/03 A3047 RMK AO2 SLP316 T00440028 $

TAF (pilot weather forecast)

Retrieved 2019/01/22 12:36 UTC (0 seconds ago):

TAF KPDX 221134Z 2212/2312 11008KT P6SM SCT080 OVC120 FM221500 12007KT P6SM -RA SCT050 OVC080 FM221700 12012KT P6SM -RA SCT030 OVC050 FM221900 13013G20KT P6SM -RA SCT030 OVC040 FM230000 17015G22KT P6SM -RA SCT015 OVC025